createdAt,value
2022-07-27T00:01:54.325Z,21.64
2022-07-27T00:04:24.343Z,21.67
2022-07-27T00:06:51.716Z,21.69
2022-07-27T00:09:18.872Z,21.65
2022-07-27T00:11:46.351Z,21.60
2022-07-27T00:14:14.330Z,21.55
2022-07-27T00:16:41.652Z,21.51
2022-07-27T00:19:09.595Z,21.56
2022-07-27T00:21:42.397Z,21.58
2022-07-27T00:24:12.406Z,21.61
2022-07-27T00:26:39.546Z,21.64
2022-07-27T00:29:07.396Z,21.62
2022-07-27T00:31:35.242Z,21.64
2022-07-27T00:34:02.237Z,21.64
2022-07-27T00:36:29.068Z,21.65
2022-07-27T00:38:57.243Z,21.64
2022-07-27T00:41:24.384Z,21.64
2022-07-27T00:43:54.465Z,21.55
2022-07-27T00:46:22.078Z,21.55
2022-07-27T00:48:51.192Z,21.56
2022-07-27T00:51:21.540Z,21.53
2022-07-27T00:53:51.435Z,21.54
2022-07-27T00:56:20.675Z,21.56
2022-07-27T00:58:51.851Z,21.58
2022-07-27T01:01:19.798Z,21.59
2022-07-27T01:03:47.939Z,21.57
2022-07-27T01:06:16.502Z,21.49
2022-07-27T01:08:53.938Z,21.46
2022-07-27T01:11:22.808Z,21.44
2022-07-27T01:13:50.050Z,21.43
2022-07-27T01:16:17.134Z,21.43
2022-07-27T01:18:44.273Z,21.43
2022-07-27T01:21:11.144Z,21.40
2022-07-27T01:23:39.762Z,21.35
2022-07-27T01:26:06.588Z,21.23
2022-07-27T01:28:36.868Z,21.22
2022-07-27T01:31:03.814Z,21.19
2022-07-27T01:33:30.939Z,21.17
2022-07-27T01:35:58.428Z,21.17
2022-07-27T01:38:25.718Z,21.07
2022-07-27T01:40:55.180Z,21.05
2022-07-27T01:43:22.734Z,21.03
2022-07-27T01:45:50.033Z,21.02
2022-07-27T01:48:17.243Z,20.87
2022-07-27T01:50:45.474Z,20.85
2022-07-27T01:53:14.643Z,20.82
2022-07-27T01:55:42.112Z,20.77
2022-07-27T01:58:10.614Z,20.74
2022-07-27T02:00:38.661Z,20.80
2022-07-27T02:03:08.694Z,20.71
2022-07-27T02:05:37.166Z,20.70
2022-07-27T02:08:06.282Z,20.72
2022-07-27T02:10:34.423Z,20.69
2022-07-27T02:13:22.413Z,20.70
2022-07-27T02:15:51.234Z,20.60
2022-07-27T02:18:33.573Z,20.61
2022-07-27T02:21:05.267Z,20.62
2022-07-27T02:23:32.375Z,20.57
2022-07-27T02:25:59.412Z,20.52
2022-07-27T02:28:28.719Z,20.55
2022-07-27T02:30:57.172Z,20.51
2022-07-27T02:33:24.175Z,20.51
2022-07-27T02:35:51.657Z,20.49
2022-07-27T02:38:18.750Z,20.46
2022-07-27T02:40:48.843Z,20.44
2022-07-27T02:43:15.846Z,20.44
2022-07-27T02:45:43.089Z,20.41
2022-07-27T02:48:15.441Z,20.36
2022-07-27T02:50:42.331Z,20.36
2022-07-27T02:53:09.150Z,20.30
2022-07-27T02:55:37.840Z,20.30
2022-07-27T02:58:04.759Z,20.31
2022-07-27T03:00:32.032Z,20.30
2022-07-27T03:02:59.510Z,20.27
2022-07-27T03:05:28.291Z,20.29
2022-07-27T03:07:55.167Z,20.12
2022-07-27T03:10:22.056Z,20.11
2022-07-27T03:12:49.032Z,20.15
2022-07-27T03:15:16.039Z,20.18
2022-07-27T03:17:42.901Z,20.12
2022-07-27T03:20:14.428Z,20.04
2022-07-27T03:22:44.966Z,20.02
2022-07-27T03:25:12.075Z,19.93
2022-07-27T03:27:39.116Z,19.95
2022-07-27T03:30:08.398Z,19.90
2022-07-27T03:32:35.400Z,19.81
2022-07-27T03:35:02.413Z,19.84
2022-07-27T03:37:29.553Z,19.89
2022-07-27T03:39:57.868Z,19.86
2022-07-27T03:42:25.179Z,19.84
2022-07-27T03:44:52.414Z,19.88
2022-07-27T03:47:19.241Z,19.93
2022-07-27T03:49:46.366Z,19.95
2022-07-27T03:52:17.715Z,19.94
2022-07-27T03:54:45.875Z,19.95
2022-07-27T03:57:14.603Z,19.93
2022-07-27T04:00:03.410Z,19.94
2022-07-27T04:02:31.764Z,20.01
2022-07-27T04:04:59.179Z,20.02
2022-07-27T04:07:26.080Z,20.03
2022-07-27T04:09:52.964Z,19.96
2022-07-27T04:12:21.593Z,19.99
2022-07-27T04:14:48.501Z,20.00
2022-07-27T04:17:54.997Z,20.02
2022-07-27T04:20:03.688Z,19.95
2022-07-27T04:22:30.820Z,19.98
2022-07-27T04:24:58.258Z,20.03
2022-07-27T04:27:26.955Z,20.08
2022-07-27T04:29:53.780Z,20.11
2022-07-27T04:32:20.575Z,20.19
2022-07-27T04:34:47.444Z,20.31
2022-07-27T04:37:14.336Z,20.32
2022-07-27T04:39:41.933Z,20.28
2022-07-27T04:42:09.356Z,20.26
2022-07-27T04:44:37.996Z,20.30
2022-07-27T04:47:05.051Z,20.38
2022-07-27T04:49:32.173Z,20.44
2022-07-27T04:52:01.050Z,20.47
2022-07-27T04:54:27.957Z,20.48
2022-07-27T04:56:55.144Z,20.48
2022-07-27T04:59:22.169Z,20.45
2022-07-27T05:01:50.991Z,20.46
2022-07-27T05:04:17.933Z,20.46
2022-07-27T05:06:45.706Z,20.48
2022-07-27T05:09:13.383Z,20.41
2022-07-27T05:11:40.704Z,20.05
2022-07-27T05:14:17.618Z,19.79
2022-07-27T05:16:48.006Z,19.73
2022-07-27T05:19:16.344Z,19.84
2022-07-27T05:21:43.818Z,19.84
2022-07-27T05:24:11.135Z,19.90
2022-07-27T05:26:38.458Z,20.03
2022-07-27T05:29:05.375Z,20.18
2022-07-27T05:31:32.419Z,20.45
2022-07-27T05:33:59.473Z,21.78
2022-07-27T05:36:27.981Z,23.04
2022-07-27T05:38:55.076Z,24.31
2022-07-27T05:41:23.672Z,25.14
2022-07-27T05:43:50.868Z,26.13
2022-07-27T05:46:18.179Z,26.88
2022-07-27T05:48:46.031Z,27.21
2022-07-27T05:51:12.985Z,25.63
2022-07-27T05:53:41.695Z,25.97
2022-07-27T05:56:08.730Z,26.47
2022-07-27T05:58:36.087Z,27.55
2022-07-27T06:01:03.415Z,28.25
2022-07-27T06:03:30.342Z,29.41
2022-07-27T06:05:58.349Z,29.86
2022-07-27T06:08:26.359Z,30.40
2022-07-27T06:10:54.806Z,30.42
2022-07-27T06:13:26.639Z,31.30
2022-07-27T06:15:55.098Z,31.49
2022-07-27T06:18:22.486Z,31.14
2022-07-27T06:20:49.246Z,30.46
2022-07-27T06:23:16.554Z,30.14
2022-07-27T06:25:43.679Z,29.72
2022-07-27T06:28:11.948Z,28.88
2022-07-27T06:30:39.000Z,28.29
2022-07-27T06:33:06.175Z,28.08
2022-07-27T06:35:34.364Z,26.33
2022-07-27T06:38:02.173Z,22.94
2022-07-27T06:40:30.107Z,20.95
2022-07-27T06:42:57.131Z,21.39
2022-07-27T06:45:27.213Z,21.93
2022-07-27T06:47:54.270Z,21.53
2022-07-27T06:50:21.556Z,21.50
2022-07-27T06:52:49.031Z,22.03
2022-07-27T06:55:16.320Z,21.39
2022-07-27T06:57:43.426Z,21.86
2022-07-27T07:00:12.490Z,22.13
2022-07-27T07:02:52.264Z,22.10
2022-07-27T07:05:19.184Z,21.86
2022-07-27T07:07:46.212Z,21.69
2022-07-27T07:10:13.816Z,21.91
2022-07-27T07:12:40.979Z,22.03
2022-07-27T07:15:09.766Z,21.72
2022-07-27T07:17:36.699Z,20.75
2022-07-27T07:20:08.141Z,21.20
2022-07-27T07:22:35.475Z,20.96
2022-07-27T07:25:03.526Z,21.37
2022-07-27T07:27:30.945Z,21.72
2022-07-27T07:29:57.782Z,21.73
2022-07-27T07:32:26.135Z,21.38
2022-07-27T07:34:55.911Z,21.60
2022-07-27T07:37:24.169Z,21.92
2022-07-27T07:40:24.876Z,21.31
2022-07-27T07:42:52.130Z,20.96
2022-07-27T07:45:20.365Z,21.46
2022-07-27T07:47:47.343Z,21.66
2022-07-27T07:50:14.359Z,21.96
2022-07-27T07:52:42.830Z,22.26
2022-07-27T07:55:11.105Z,22.60
2022-07-27T07:57:38.663Z,22.88
2022-07-27T08:00:08.387Z,23.02
2022-07-27T08:02:47.113Z,23.12
2022-07-27T08:05:15.373Z,23.37
2022-07-27T08:07:45.502Z,23.47
2022-07-27T08:10:15.056Z,23.60
2022-07-27T08:12:45.520Z,23.66
2022-07-27T08:15:15.365Z,23.60
2022-07-27T08:17:43.118Z,23.78
2022-07-27T08:20:12.180Z,24.29
2022-07-27T08:22:39.544Z,24.90
2022-07-27T08:25:10.609Z,25.51
2022-07-27T08:27:40.293Z,26.02
2022-07-27T08:30:10.419Z,23.98
2022-07-27T08:32:53.868Z,24.63
2022-07-27T08:35:21.686Z,24.84
2022-07-27T08:37:49.154Z,25.31
2022-07-27T08:43:07.572Z,26.15
2022-07-27T08:45:35.788Z,26.40
2022-07-27T08:48:03.470Z,26.59
2022-07-27T08:50:30.983Z,26.71
2022-07-27T08:53:03.487Z,26.52
2022-07-27T08:55:35.881Z,26.83
2022-07-27T08:58:04.190Z,27.23
2022-07-27T09:00:32.943Z,27.41
2022-07-27T09:03:00.789Z,27.63
2022-07-27T09:05:37.313Z,26.88
2022-07-27T09:08:14.020Z,27.22
2022-07-27T09:10:43.480Z,27.49
2022-07-27T09:13:20.609Z,27.76
2022-07-27T09:16:16.444Z,27.76
2022-07-27T09:18:39.109Z,28.03
2022-07-27T09:21:15.794Z,28.16
2022-07-27T09:23:48.403Z,28.24
2022-07-27T09:26:35.326Z,28.46
2022-07-27T09:29:05.302Z,27.66
2022-07-27T09:31:39.987Z,26.80
2022-07-27T09:34:07.228Z,26.82
2022-07-27T09:36:49.964Z,26.54
2022-07-27T09:39:20.430Z,26.28
2022-07-27T09:41:51.954Z,26.71
2022-07-27T09:44:34.811Z,26.74
2022-07-27T09:47:22.132Z,27.62
2022-07-27T09:49:49.163Z,28.10
2022-07-27T09:52:23.935Z,28.68
2022-07-27T09:54:51.388Z,29.18
2022-07-27T09:57:19.838Z,29.46
2022-07-27T09:59:47.379Z,29.06
2022-07-27T10:02:15.072Z,29.41
2022-07-27T10:04:43.866Z,29.95
2022-07-27T10:07:13.920Z,29.68
2022-07-27T10:09:41.088Z,29.50
2022-07-27T10:12:09.276Z,29.96
2022-07-27T10:14:37.777Z,29.63
2022-07-27T10:17:07.325Z,29.77
2022-07-27T10:19:45.148Z,29.68
2022-07-27T10:22:13.089Z,28.26
2022-07-27T10:24:40.209Z,27.08
2022-07-27T10:27:20.823Z,27.16
2022-07-27T10:29:51.175Z,28.45
2022-07-27T10:32:24.560Z,29.34
2022-07-27T10:34:51.823Z,29.77
2022-07-27T10:37:26.557Z,30.48
2022-07-27T10:39:56.856Z,31.06
2022-07-27T10:42:28.340Z,30.98
2022-07-27T10:45:05.251Z,29.98
2022-07-27T10:47:40.786Z,29.04
2022-07-27T10:50:29.222Z,28.44
2022-07-27T10:53:05.368Z,28.20
2022-07-27T10:55:47.444Z,28.17
2022-07-27T10:58:47.384Z,28.18
2022-07-27T11:01:18.750Z,28.06
2022-07-27T11:03:46.921Z,28.78
2022-07-27T11:06:33.104Z,30.03
2022-07-27T11:10:00.034Z,30.20
2022-07-27T11:11:53.308Z,29.60
2022-07-27T11:14:30.466Z,29.42
2022-07-27T11:17:32.244Z,29.48
2022-07-27T11:19:52.963Z,29.85
2022-07-27T11:22:50.154Z,31.10
2022-07-27T11:25:17.144Z,30.96
2022-07-27T11:27:48.833Z,31.55
2022-07-27T11:30:24.476Z,30.61
2022-07-27T11:32:53.389Z,30.43
2022-07-27T11:35:20.692Z,31.34
2022-07-27T11:37:59.898Z,30.83
2022-07-27T11:43:37.132Z,32.50
2022-07-27T11:46:23.673Z,33.08
2022-07-27T11:49:06.748Z,33.38
2022-07-27T11:51:46.496Z,32.44
2022-07-27T11:54:20.343Z,31.44
2022-07-27T11:56:50.917Z,31.19
2022-07-27T11:59:20.383Z,30.52
2022-07-27T12:01:51.194Z,30.32
2022-07-27T12:04:26.391Z,30.12
2022-07-27T12:07:08.319Z,29.68
2022-07-27T12:09:39.182Z,29.43
2022-07-27T12:12:13.654Z,29.28
2022-07-27T12:14:43.803Z,29.09
2022-07-27T12:17:28.750Z,29.08
2022-07-27T12:20:07.459Z,29.28
2022-07-27T12:22:38.091Z,29.47
2022-07-27T12:25:25.818Z,29.20
2022-07-27T12:27:55.980Z,29.32
2022-07-27T12:30:31.671Z,29.32
2022-07-27T12:33:32.748Z,29.37
2022-07-27T12:36:04.035Z,28.82
2022-07-27T12:38:38.175Z,28.64
2022-07-27T12:41:05.344Z,28.26
2022-07-27T12:43:32.938Z,28.32
2022-07-27T12:46:11.639Z,28.56
2022-07-27T12:48:41.655Z,28.08
2022-07-27T12:51:12.087Z,27.67
2022-07-27T12:53:39.791Z,27.07
2022-07-27T12:56:31.101Z,27.36
2022-07-27T12:59:00.150Z,27.64
2022-07-27T13:01:31.404Z,27.58
2022-07-27T13:03:58.476Z,27.43
2022-07-27T13:06:26.782Z,27.64
2022-07-27T13:08:53.656Z,27.84
2022-07-27T13:11:20.706Z,28.14
2022-07-27T13:13:47.561Z,28.35
2022-07-27T13:16:14.715Z,28.08
2022-07-27T13:18:41.687Z,27.59
2022-07-27T13:21:08.604Z,27.77
2022-07-27T13:23:37.229Z,27.87
2022-07-27T13:26:04.768Z,28.05
2022-07-27T13:28:31.783Z,28.10
2022-07-27T13:31:03.053Z,28.29
2022-07-27T13:33:30.585Z,27.84
2022-07-27T13:36:00.427Z,27.71
2022-07-27T13:38:28.500Z,27.15
2022-07-27T13:40:56.913Z,26.87
2022-07-27T13:43:24.900Z,27.37
2022-07-27T13:45:52.208Z,27.64
2022-07-27T13:48:46.045Z,27.31
2022-07-27T13:51:13.623Z,27.65
2022-07-27T13:53:40.548Z,27.32
2022-07-27T13:56:08.973Z,27.22
2022-07-27T13:58:35.991Z,27.31
2022-07-27T14:01:07.483Z,27.28
2022-07-27T14:03:35.238Z,27.33
2022-07-27T14:06:02.380Z,27.54
2022-07-27T14:08:29.915Z,27.55
2022-07-27T14:10:57.026Z,27.72
2022-07-27T14:13:25.445Z,27.78
2022-07-27T14:15:54.037Z,27.76
2022-07-27T14:18:25.238Z,27.54
2022-07-27T14:20:52.613Z,27.48
2022-07-27T14:23:19.962Z,27.57
2022-07-27T14:25:47.371Z,27.45
2022-07-27T14:28:14.460Z,27.58
2022-07-27T14:30:42.751Z,27.56
2022-07-27T14:33:09.693Z,27.34
2022-07-27T14:35:40.543Z,26.33
2022-07-27T14:38:08.399Z,26.31
2022-07-27T14:40:35.735Z,26.63
2022-07-27T14:43:03.033Z,26.86
2022-07-27T14:45:44.025Z,27.08
2022-07-27T14:48:20.358Z,27.22
2022-07-27T14:50:52.408Z,27.12
2022-07-27T14:53:21.355Z,27.14
2022-07-27T14:55:50.713Z,27.27
2022-07-27T14:58:17.964Z,27.46
2022-07-27T15:00:45.426Z,27.64
2022-07-27T15:03:14.622Z,27.78
2022-07-27T15:05:50.008Z,27.78
2022-07-27T15:08:25.572Z,27.53
2022-07-27T15:10:52.674Z,27.56
2022-07-27T15:13:19.845Z,27.71
2022-07-27T15:15:46.927Z,27.74
2022-07-27T15:18:15.349Z,27.72
2022-07-27T15:20:42.242Z,27.76
2022-07-27T15:23:09.089Z,27.57
2022-07-27T15:25:36.169Z,27.41
2022-07-27T15:28:03.938Z,27.41
2022-07-27T15:30:37.881Z,27.40
2022-07-27T15:33:05.812Z,27.38
2022-07-27T15:35:34.729Z,27.13
2022-07-27T15:38:01.982Z,26.86
2022-07-27T15:40:29.441Z,26.79
2022-07-27T15:42:56.423Z,26.83
2022-07-27T15:45:23.404Z,26.83
2022-07-27T15:47:52.850Z,26.62
2022-07-27T15:50:20.566Z,26.55
2022-07-27T15:52:49.000Z,26.63
2022-07-27T15:55:15.881Z,26.64
2022-07-27T15:57:43.364Z,26.50
2022-07-27T16:00:12.383Z,26.53
2022-07-27T16:02:39.708Z,26.45
2022-07-27T16:05:07.062Z,26.46
2022-07-27T16:07:41.419Z,26.52
2022-07-27T16:10:10.656Z,26.69
2022-07-27T16:12:38.507Z,26.79
2022-07-27T16:15:07.784Z,26.83
2022-07-27T16:17:34.648Z,26.86
2022-07-27T16:20:01.534Z,26.86
2022-07-27T16:22:28.912Z,26.80
2022-07-27T16:24:55.754Z,26.85
2022-07-27T16:27:24.266Z,26.62
2022-07-27T16:29:51.805Z,26.61
2022-07-27T16:32:18.793Z,26.39
2022-07-27T16:34:45.859Z,26.19
2022-07-27T16:37:12.754Z,25.95
2022-07-27T16:39:39.841Z,26.03
2022-07-27T16:42:07.035Z,26.02
2022-07-27T16:44:35.178Z,25.98
2022-07-27T16:47:02.211Z,25.93
2022-07-27T16:49:33.641Z,25.93
2022-07-27T16:52:04.739Z,25.97
2022-07-27T16:54:36.982Z,25.80
2022-07-27T16:57:06.817Z,25.89
2022-07-27T16:59:34.977Z,25.88
2022-07-27T17:02:02.300Z,25.78
2022-07-27T17:04:29.605Z,25.74
2022-07-27T17:06:56.892Z,25.79
2022-07-27T17:09:23.797Z,25.80
2022-07-27T17:11:50.877Z,25.72
2022-07-27T17:14:20.891Z,25.64
2022-07-27T17:16:52.047Z,25.55
2022-07-27T17:19:19.937Z,25.57
2022-07-27T17:21:47.044Z,25.58
2022-07-27T17:24:14.056Z,25.62
2022-07-27T17:26:41.231Z,25.57
2022-07-27T17:29:08.078Z,25.56
2022-07-27T17:31:35.722Z,25.52
2022-07-27T17:34:04.407Z,25.39
2022-07-27T17:36:31.300Z,25.39
2022-07-27T17:38:58.354Z,25.34
2022-07-27T17:41:25.600Z,25.34
2022-07-27T17:43:54.039Z,25.33
2022-07-27T17:46:21.703Z,25.28
2022-07-27T17:48:49.075Z,25.24
2022-07-27T17:51:17.721Z,25.21
2022-07-27T17:53:44.972Z,25.20
2022-07-27T17:56:12.505Z,25.22
2022-07-27T17:58:40.431Z,25.11
2022-07-27T18:01:07.314Z,25.06
2022-07-27T18:03:34.889Z,25.06
2022-07-27T18:06:02.378Z,25.02
2022-07-27T18:08:30.901Z,25.04
2022-07-27T18:10:57.942Z,24.98
2022-07-27T18:13:37.862Z,24.92
2022-07-27T18:16:09.684Z,24.90
2022-07-27T18:18:37.292Z,24.78
2022-07-27T18:21:05.072Z,24.71
2022-07-27T18:23:34.675Z,24.59
2022-07-27T18:26:02.681Z,24.56
2022-07-27T18:28:31.611Z,24.43
2022-07-27T18:31:00.573Z,24.43
2022-07-27T18:33:36.459Z,24.34
2022-07-27T18:36:06.801Z,24.29
2022-07-27T18:38:34.988Z,24.30
2022-07-27T18:41:09.392Z,24.23
2022-07-27T18:43:36.762Z,24.11
2022-07-27T18:46:03.967Z,24.10
2022-07-27T18:48:31.327Z,24.10
2022-07-27T18:50:58.548Z,24.01
2022-07-27T18:53:25.634Z,23.97
2022-07-27T18:55:56.461Z,23.89
2022-07-27T18:58:24.627Z,23.87
2022-07-27T19:00:52.257Z,23.85
2022-07-27T19:03:22.051Z,23.83
2022-07-27T19:05:52.005Z,23.77
2022-07-27T19:08:20.090Z,23.78
2022-07-27T19:10:47.644Z,23.76
2022-07-27T19:13:15.893Z,23.70
2022-07-27T19:15:42.779Z,23.71
2022-07-27T19:18:10.143Z,23.68
2022-07-27T19:20:37.499Z,23.68
2022-07-27T19:23:10.974Z,23.63
2022-07-27T19:25:38.061Z,23.65
2022-07-27T19:28:05.520Z,23.61
2022-07-27T19:30:33.968Z,23.59
2022-07-27T19:33:01.914Z,23.49
2022-07-27T19:35:29.663Z,23.39
2022-07-27T19:37:56.573Z,23.36
2022-07-27T19:43:11.248Z,23.18
2022-07-27T19:45:39.686Z,23.23
2022-07-27T19:48:07.125Z,23.22
2022-07-27T19:54:53.002Z,23.12
2022-07-27T19:58:16.754Z,23.06
2022-07-27T20:00:47.543Z,23.04
2022-07-27T20:03:14.544Z,22.95
2022-07-27T20:05:41.658Z,22.91
2022-07-27T20:08:08.825Z,22.74
2022-07-27T20:10:35.668Z,22.70
2022-07-27T20:13:02.633Z,22.66
2022-07-27T20:15:34.340Z,22.49
2022-07-27T20:18:03.078Z,22.40
2022-07-27T20:20:32.082Z,22.38
2022-07-27T20:22:59.302Z,22.40
2022-07-27T20:25:26.189Z,22.41
2022-07-27T20:27:53.400Z,22.45
2022-07-27T20:30:20.604Z,22.40
2022-07-27T20:32:48.633Z,22.39
2022-07-27T20:35:20.519Z,22.35
2022-07-27T20:37:48.591Z,22.13
2022-07-27T20:40:15.942Z,22.04
2022-07-27T20:42:47.066Z,22.08
2022-07-27T20:45:17.161Z,22.01
2022-07-27T20:47:47.655Z,21.95
2022-07-27T20:50:15.448Z,21.94
2022-07-27T20:52:44.019Z,21.94
2022-07-27T20:55:13.454Z,21.91
2022-07-27T20:57:43.678Z,21.92
2022-07-27T21:00:12.311Z,21.91
2022-07-27T21:02:39.976Z,21.85
2022-07-27T21:05:08.882Z,21.82
2022-07-27T21:07:36.114Z,21.81
2022-07-27T21:10:06.551Z,21.81
2022-07-27T21:12:34.144Z,21.79
2022-07-27T21:15:01.295Z,21.81
2022-07-27T21:17:28.408Z,21.68
2022-07-27T21:19:55.458Z,21.60
2022-07-27T21:22:22.377Z,21.56
2022-07-27T21:24:49.267Z,21.51
2022-07-27T21:27:18.729Z,21.54
2022-07-27T21:29:48.532Z,21.51
2022-07-27T21:32:15.698Z,21.47
2022-07-27T21:34:42.663Z,21.41
2022-07-27T21:37:09.528Z,21.30
2022-07-27T21:39:36.534Z,21.29
2022-07-27T21:42:04.041Z,21.26
2022-07-27T21:44:32.182Z,21.29
2022-07-27T21:46:59.469Z,21.31
2022-07-27T21:49:34.163Z,21.34
2022-07-27T21:52:02.344Z,21.35
2022-07-27T21:54:29.312Z,21.32
2022-07-27T21:56:56.260Z,21.31
2022-07-27T21:59:23.551Z,21.28
2022-07-27T22:01:51.816Z,21.29
2022-07-27T22:04:18.978Z,21.27
2022-07-27T22:06:46.160Z,21.19
2022-07-27T22:09:12.965Z,21.14
2022-07-27T22:11:40.138Z,21.15
2022-07-27T22:14:07.178Z,21.15
2022-07-27T22:16:34.310Z,21.11
2022-07-27T22:19:03.004Z,21.11
2022-07-27T22:21:30.570Z,21.03
2022-07-27T22:23:57.326Z,21.02
2022-07-27T22:26:24.440Z,21.00
2022-07-27T22:28:52.392Z,21.00
2022-07-27T22:31:22.179Z,21.01
2022-07-27T22:33:50.533Z,20.99
2022-07-27T22:36:19.294Z,20.96
2022-07-27T22:38:46.292Z,20.82
2022-07-27T22:41:14.539Z,20.82
2022-07-27T22:43:41.634Z,20.83
2022-07-27T22:46:08.694Z,20.79
2022-07-27T22:48:35.800Z,20.74
2022-07-27T22:51:02.894Z,20.70
2022-07-27T22:53:31.100Z,20.70
2022-07-27T22:55:59.804Z,20.68
2022-07-27T22:58:29.728Z,20.67
2022-07-27T23:00:59.641Z,20.65
2022-07-27T23:03:26.850Z,20.64
2022-07-27T23:05:53.984Z,20.61
2022-07-27T23:08:34.498Z,20.57
2022-07-27T23:11:03.074Z,20.53
2022-07-27T23:13:33.897Z,20.53
2022-07-27T23:16:01.299Z,20.53
2022-07-27T23:18:28.427Z,20.52
2022-07-27T23:20:55.443Z,20.41
2022-07-27T23:23:22.505Z,20.45
2022-07-27T23:25:52.970Z,20.39
2022-07-27T23:28:23.480Z,20.37
2022-07-27T23:30:50.326Z,20.42
2022-07-27T23:33:17.414Z,20.45
2022-07-27T23:35:44.484Z,20.45
2022-07-27T23:38:14.300Z,20.48
2022-07-27T23:40:41.828Z,20.45
2022-07-27T23:43:12.835Z,20.46
2022-07-27T23:45:41.309Z,20.47
2022-07-27T23:48:13.051Z,20.45
2022-07-27T23:50:39.880Z,20.50
2022-07-27T23:53:13.990Z,20.49
2022-07-27T23:55:44.084Z,20.51
2022-07-27T23:58:11.001Z,20.44
